Time;durP1;ratioP1;P1;durP2;ratioP2;P2;SDS_P1;SDS_P2;PMS_P1;PMS_P2;Temp;Humidity;BMP_temperature;BMP_pressure;BME280_temperature;BME280_humidity;BME280_pressure;Samples;Min_cycle;Max_cycle;Signal;HPM_P1;HPM_P2
2021/07/13 00:00:33;;;;;;;;;;;;;;;17.97;76.09;99540.13;5091583;28;849;-63
2021/07/13 00:03:00;;;;;;;;;;;;;;;17.92;76.55;99538.72;5091507;28;901;-63
2021/07/13 00:05:27;;;;;;;;;;;;;;;17.88;76.68;99542.84;5073378;28;1878;-63
2021/07/13 00:07:55;;;;;;;;;;;;;;;17.83;76.98;99538.66;5091424;28;806;-63
2021/07/13 00:10:25;;;;;;;;;;;;;;;17.80;77.37;99531.16;5091379;28;1023;-63
2021/07/13 00:12:53;;;;;;;;;;;;;;;17.78;77.60;99535.66;5091352;28;1411;-63
2021/07/13 00:15:31;;;;;;;;;;;;;;;17.78;77.36;99533.63;5091697;28;834;-63
2021/07/13 00:17:58;;;;;;;;;;;;;;;17.79;77.16;99532.38;5091382;28;805;-63
2021/07/13 00:20:24;;;;;;;;;;;;;;;17.76;77.17;99524.94;5091456;28;790;-63
2021/07/13 00:22:51;;;;;;;;;;;;;;;17.73;77.05;99528.63;5091280;28;893;-63
2021/07/13 00:25:17;;;;;;;;;;;;;;;17.71;77.89;99522.75;5093626;28;1910;-63
2021/07/13 00:27:45;;;;;;;;;;;;;;;17.72;78.29;99527.84;5077014;28;1285;-63
2021/07/13 00:30:12;;;;;;;;;;;;;;;17.67;78.90;99522.09;5095308;28;830;-63
2021/07/13 00:32:40;;;;;;;;;;;;;;;17.62;79.47;99522.69;5095080;28;868;-63
2021/07/13 00:35:07;;;;;;;;;;;;;;;17.58;79.56;99528.41;5095115;28;925;-63
2021/07/13 00:37:34;;;;;;;;;;;;;;;17.55;79.80;99515.34;5095268;28;830;-63
2021/07/13 00:40:00;;;;;;;;;;;;;;;17.52;79.96;99519.84;5095303;28;779;-63
2021/07/13 00:42:27;;;;;;;;;;;;;;;17.47;80.05;99517.63;5094948;28;825;-63
2021/07/13 00:44:54;;;;;;;;;;;;;;;17.43;80.36;99514.22;5094853;28;1890;-63
2021/07/13 00:47:22;;;;;;;;;;;;;;;17.42;80.20;99511.88;5094895;28;849;-63
2021/07/13 00:49:49;;;;;;;;;;;;;;;17.38;80.57;99514.00;5094754;28;905;-63
2021/07/13 00:52:14;;;;;;;;;;;;;;;17.35;80.52;99510.91;5095045;28;818;-63
2021/07/13 00:54:43;;;;;;;;;;;;;;;17.29;80.56;99520.31;5094773;28;861;-63
2021/07/13 00:57:13;;;;;;;;;;;;;;;17.25;80.73;99520.44;5094714;28;873;-63
2021/07/13 00:59:40;;;;;;;;;;;;;;;17.26;80.68;99522.03;5094681;28;786;-63
2021/07/13 01:02:08;;;;;;;;;;;;;;;17.29;80.66;99518.31;5094574;28;858;-63
2021/07/13 01:04:36;;;;;;;;;;;;;;;17.29;80.46;99521.09;5094513;28;1921;-62
2021/07/13 01:07:06;;;;;;;;;;;;;;;17.27;80.27;99511.63;5094464;28;873;-63
2021/07/13 01:09:35;;;;;;;;;;;;;;;17.30;80.35;99508.69;5094476;28;869;-64
2021/07/13 01:12:06;;;;;;;;;;;;;;;17.38;80.49;99512.00;5094540;28;1378;-63
2021/07/13 01:14:39;;;;;;;;;;;;;;;17.43;80.38;99514.22;5094382;28;885;-63
2021/07/13 01:17:27;;;;;;;;;;;;;;;17.45;80.06;99520.09;5094384;28;897;-63
2021/07/13 01:20:03;;;;;;;;;;;;;;;17.47;80.03;99516.84;5094291;28;818;-63
2021/07/13 01:22:43;;;;;;;;;;;;;;;17.48;79.93;99505.22;5094257;28;814;-63
2021/07/13 01:25:23;;;;;;;;;;;;;;;17.50;79.69;99511.13;5094096;28;1975;-63
2021/07/13 01:27:50;;;;;;;;;;;;;;;17.50;79.82;99513.16;5094121;28;826;-63
2021/07/13 01:30:22;;;;;;;;;;;;;;;17.51;79.55;99514.69;5094095;28;1275;-63
2021/07/13 01:32:50;;;;;;;;;;;;;;;17.49;79.21;99522.75;5094191;28;884;-63
2021/07/13 01:35:22;;;;;;;;;;;;;;;17.48;79.03;99521.22;5093539;28;889;-63
2021/07/13 01:37:52;;;;;;;;;;;;;;;17.45;79.06;99522.88;5093300;28;814;-63
2021/07/13 01:40:19;;;;;;;;;;;;;;;17.45;79.31;99522.88;5093853;28;857;-63
2021/07/13 01:42:46;;;;;;;;;;;;;;;17.41;79.31;99527.84;5093938;28;880;-63
2021/07/13 01:45:12;;;;;;;;;;;;;;;17.40;79.14;99529.06;5094030;28;2011;-63
2021/07/13 01:47:39;;;;;;;;;;;;;;;17.37;79.15;99529.19;5093786;28;814;-63
2021/07/13 01:50:07;;;;;;;;;;;;;;;17.38;79.33;99527.97;5093736;28;868;-63
2021/07/13 01:52:34;;;;;;;;;;;;;;;17.39;79.25;99526.72;5093588;28;810;-63
2021/07/13 01:55:02;;;;;;;;;;;;;;;17.44;79.12;99537.34;5093600;28;979;-63
2021/07/13 01:57:29;;;;;;;;;;;;;;;17.49;79.24;99534.72;5093551;28;905;-64
2021/07/13 01:59:57;;;;;;;;;;;;;;;17.55;79.03;99535.69;5093466;28;817;-64
2021/07/13 02:02:27;;;;;;;;;;;;;;;17.60;78.96;99541.91;5093376;28;798;-64
2021/07/13 02:04:55;;;;;;;;;;;;;;;17.57;79.01;99534.47;5093307;28;1885;-63
2021/07/13 02:07:23;;;;;;;;;;;;;;;17.54;79.14;99536.16;5093347;28;849;-64
2021/07/13 02:09:50;;;;;;;;;;;;;;;17.53;79.39;99529.00;5093320;28;884;-64
2021/07/13 02:12:18;;;;;;;;;;;;;;;17.54;79.68;99542.53;5092943;28;1353;-63
2021/07/13 02:14:44;;;;;;;;;;;;;;;17.51;80.05;99534.25;5093192;28;854;-64
2021/07/13 02:17:11;;;;;;;;;;;;;;;17.52;80.19;99531.03;5093222;28;897;-64
2021/07/13 02:19:38;;;;;;;;;;;;;;;17.55;80.24;99537.69;5093013;28;846;-64
2021/07/13 02:22:06;;;;;;;;;;;;;;;17.53;80.64;99532.56;5093133;28;818;-64
2021/07/13 02:24:33;;;;;;;;;;;;;;;17.49;80.77;99533.94;5093247;28;1913;-63
2021/07/13 02:27:01;;;;;;;;;;;;;;;17.46;80.58;99532.06;5092953;28;815;-63
2021/07/13 02:29:40;;;;;;;;;;;;;;;17.40;80.24;99528.31;5092868;28;818;-63
2021/07/13 02:32:10;;;;;;;;;;;;;;;17.40;80.21;99531.09;5092795;28;817;-63
2021/07/13 02:34:39;;;;;;;;;;;;;;;17.45;79.89;99536.09;5092990;28;877;-63
2021/07/13 02:37:08;;;;;;;;;;;;;;;17.47;79.94;99534.38;5092740;28;833;-64
2021/07/13 02:39:38;;;;;;;;;;;;;;;17.48;79.80;99533.16;5092770;28;873;-63
2021/07/13 02:42:06;;;;;;;;;;;;;;;17.48;80.13;99532.41;5093058;28;813;-64
2021/07/13 02:44:34;;;;;;;;;;;;;;;17.50;80.37;99538.31;5093068;28;1957;-64
2021/07/13 02:47:10;;;;;;;;;;;;;;;17.50;80.20;99532.72;5092334;28;893;-64
2021/07/13 02:49:43;;;;;;;;;;;;;;;17.47;80.31;99528.78;5092614;28;790;-64
2021/07/13 02:52:12;;;;;;;;;;;;;;;17.44;80.52;99526.16;5092537;28;892;-65
2021/07/13 02:54:39;;;;;;;;;;;;;;;17.41;80.40;99530.66;5092781;28;814;-65
2021/07/13 02:57:07;;;;;;;;;;;;;;;17.38;80.39;99522.41;5092434;28;821;-62
2021/07/13 02:59:37;;;;;;;;;;;;;;;17.30;80.47;99528.25;5092265;28;889;-62
2021/07/13 03:02:04;;;;;;;;;;;;;;;17.24;80.53;99523.69;5092504;28;885;-63
2021/07/13 03:04:31;;;;;;;;;;;;;;;17.13;80.54;99519.28;5092536;28;806;-63
2021/07/13 03:06:58;;;;;;;;;;;;;;;17.07;80.48;99521.09;5092504;28;1885;-63
2021/07/13 03:09:24;;;;;;;;;;;;;;;17.07;80.38;99521.09;5092246;28;858;-63
2021/07/13 03:11:51;;;;;;;;;;;;;;;17.06;80.16;99525.13;5092569;28;1379;-63
2021/07/13 03:14:18;;;;;;;;;;;;;;;17.03;79.92;99519.69;5092497;28;846;-63
2021/07/13 03:16:47;;;;;;;;;;;;;;;17.00;79.80;99524.13;5092378;28;893;-62
2021/07/13 03:19:15;;;;;;;;;;;;;;;16.99;79.52;99524.59;5092078;28;795;-63
2021/07/13 03:21:45;;;;;;;;;;;;;;;16.98;79.59;99523.81;5092058;28;814;-63
2021/07/13 03:24:12;;;;;;;;;;;;;;;17.00;79.41;99528.94;5092046;28;841;-63
2021/07/13 03:26:40;;;;;;;;;;;;;;;17.06;79.60;99527.91;5091915;28;1973;-63
2021/07/13 03:29:10;;;;;;;;;;;;;;;17.15;79.36;99529.97;5091910;28;892;-63
2021/07/13 03:31:37;;;;;;;;;;;;;;;17.25;79.34;99530.84;5091812;28;908;-63
2021/07/13 03:34:05;;;;;;;;;;;;;;;17.35;79.58;99533.25;5092016;28;879;-64
2021/07/13 03:36:32;;;;;;;;;;;;;;;17.45;79.56;99530.50;5091870;28;841;-63
2021/07/13 03:38:59;;;;;;;;;;;;;;;17.59;79.57;99532.75;5091853;28;826;-63
2021/07/13 03:41:28;;;;;;;;;;;;;;;17.88;79.18;99532.47;5091760;28;896;-63
2021/07/13 03:43:55;;;;;;;;;;;;;;;18.26;77.85;99536.94;5091747;28;889;-64
2021/07/13 03:46:24;;;;;;;;;;;;;;;18.66;76.44;99538.91;5091598;28;1902;-63
2021/07/13 03:48:51;;;;;;;;;;;;;;;19.00;75.05;99536.31;5091677;28;829;-63
2021/07/13 03:51:37;;;;;;;;;;;;;;;19.15;74.35;99540.03;5091706;28;913;-63
2021/07/13 03:54:04;;;;;;;;;;;;;;;19.22;73.63;99528.50;5091648;28;818;-63
2021/07/13 03:56:31;;;;;;;;;;;;;;;19.11;74.06;99528.22;5091558;28;904;-63
2021/07/13 03:58:58;;;;;;;;;;;;;;;19.01;74.02;99527.44;5091683;28;822;-63
2021/07/13 04:01:25;;;;;;;;;;;;;;;18.96;74.32;99528.84;5095774;28;821;-63
2021/07/13 04:03:52;;;;;;;;;;;;;;;18.96;74.11;99526.03;5095753;28;877;-63
2021/07/13 04:06:19;;;;;;;;;;;;;;;19.04;74.04;99520.91;5095648;28;1885;-63
2021/07/13 04:08:46;;;;;;;;;;;;;;;19.10;73.96;99527.44;5095661;28;889;-63
2021/07/13 04:11:12;;;;;;;;;;;;;;;19.24;73.63;99520.41;5095901;28;1032;-62
2021/07/13 04:13:39;;;;;;;;;;;;;;;19.44;73.32;99525.53;5094293;28;1393;-62
2021/07/13 04:16:08;;;;;;;;;;;;;;;19.66;72.50;99519.69;5094149;28;845;-62
2021/07/13 04:18:34;;;;;;;;;;;;;;;19.77;72.38;99511.59;5094447;28;916;-62
2021/07/13 04:21:01;;;;;;;;;;;;;;;19.86;71.97;99518.41;5093994;28;866;-63
2021/07/13 04:23:29;;;;;;;;;;;;;;;19.97;71.59;99518.66;5094095;28;889;-63
2021/07/13 04:25:55;;;;;;;;;;;;;;;20.16;71.21;99513.75;5093899;28;1917;-63
2021/07/13 04:28:22;;;;;;;;;;;;;;;20.51;70.10;99516.06;5094207;28;889;-62
2021/07/13 04:30:48;;;;;;;;;;;;;;;21.03;69.54;99516.59;5093870;28;806;-63
2021/07/13 04:33:14;;;;;;;;;;;;;;;21.44;68.70;99513.28;5093893;28;803;-62
2021/07/13 04:35:40;;;;;;;;;;;;;;;21.88;67.37;99520.91;5093825;28;877;-63
2021/07/13 04:38:07;;;;;;;;;;;;;;;22.39;65.75;99525.28;5093772;28;885;-63
2021/07/13 04:40:34;;;;;;;;;;;;;;;22.97;64.06;99519.84;5093751;28;858;-63
2021/07/13 04:43:00;;;;;;;;;;;;;;;23.42;61.95;99526.75;5093745;28;798;-63
2021/07/13 04:45:27;;;;;;;;;;;;;;;23.36;61.38;99523.09;5093696;28;1984;-63
2021/07/13 04:47:54;;;;;;;;;;;;;;;23.08;61.23;99519.22;5093632;28;938;-63
2021/07/13 04:50:21;;;;;;;;;;;;;;;22.65;62.43;99521.78;5093735;28;830;-63
2021/07/13 04:52:48;;;;;;;;;;;;;;;22.42;63.03;99519.44;5093544;28;1019;-64
2021/07/13 04:55:17;;;;;;;;;;;;;;;22.32;64.32;99520.84;5093512;28;861;-63
2021/07/13 04:57:44;;;;;;;;;;;;;;;22.33;63.74;99522.38;5093512;28;869;-63
2021/07/13 05:00:12;;;;;;;;;;;;;;;22.40;63.68;99524.78;5075246;28;1345;-63
2021/07/13 05:02:39;;;;;;;;;;;;;;;22.60;63.11;99517.63;5093379;28;838;-63
2021/07/13 05:05:10;;;;;;;;;;;;;;;22.90;63.31;99521.06;5093208;28;1950;-62
2021/07/13 05:16:01;;;;;;;;;;;;;;;26.02;54.74;99531.53;5109631;27;1290;-62
2021/07/13 05:18:27;;;;;;;;;;;;;;;26.71;52.55;99529.31;5109485;28;876;-62
2021/07/13 05:21:05;;;;;;;;;;;;;;;27.25;51.64;99531.66;5109356;28;837;-63
2021/07/13 05:23:33;;;;;;;;;;;;;;;27.50;50.25;99526.81;5108083;28;2272;-62
2021/07/13 05:25:59;;;;;;;;;;;;;;;27.81;50.46;99539.75;5109348;28;834;-62
2021/07/13 05:28:25;;;;;;;;;;;;;;;28.22;49.74;99526.75;5109470;28;802;-62
2021/07/13 05:30:52;;;;;;;;;;;;;;;28.48;49.11;99529.84;5109580;28;810;-62
2021/07/13 05:33:18;;;;;;;;;;;;;;;28.91;48.67;99531.91;5109164;28;841;-62
2021/07/13 05:35:45;;;;;;;;;;;;;;;29.47;47.16;99527.50;5109093;28;1910;-62
2021/07/13 05:38:12;;;;;;;;;;;;;;;29.89;46.24;99533.59;5109089;28;829;-62
2021/07/13 05:40:39;;;;;;;;;;;;;;;30.47;44.90;99532.03;5109099;28;806;-62
2021/07/13 05:43:05;;;;;;;;;;;;;;;31.44;44.88;99534.41;5108873;28;857;-61
2021/07/13 05:45:32;;;;;;;;;;;;;;;32.05;42.21;99533.44;5108980;28;814;-61
2021/07/13 05:47:59;;;;;;;;;;;;;;;32.19;41.61;99537.75;5108879;28;912;-62
2021/07/13 05:50:25;;;;;;;;;;;;;;;32.34;41.74;99534.97;5108930;28;857;-61
2021/07/13 05:52:52;;;;;;;;;;;;;;;32.47;40.83;99536.22;5108839;28;853;-61
2021/07/13 05:55:19;;;;;;;;;;;;;;;32.70;40.81;99533.50;5108747;28;1881;-61
2021/07/13 05:57:45;;;;;;;;;;;;;;;33.00;40.78;99540.69;5109033;28;920;-61
2021/07/13 06:00:12;;;;;;;;;;;;;;;33.61;39.98;99534.41;5108719;28;802;-61
2021/07/13 06:02:39;;;;;;;;;;;;;;;33.98;39.16;99532.91;5108705;28;920;-61
2021/07/13 06:05:05;;;;;;;;;;;;;;;34.20;38.89;99536.34;5108557;28;842;-61
2021/07/13 06:07:32;;;;;;;;;;;;;;;34.61;38.61;99529.38;5108620;28;893;-60
2021/07/13 06:09:59;;;;;;;;;;;;;;;34.67;37.65;99532.06;5108418;28;857;-61
2021/07/13 06:12:26;;;;;;;;;;;;;;;34.90;37.93;99534.84;5108298;28;905;-60
2021/07/13 06:14:53;;;;;;;;;;;;;;;34.84;37.64;99535.06;5108100;28;1948;-61
2021/07/13 06:17:19;;;;;;;;;;;;;;;34.93;37.19;99531.59;5108400;28;884;-61
2021/07/13 06:19:45;;;;;;;;;;;;;;;35.06;36.74;99535.53;5107184;28;1373;-61
2021/07/13 06:22:12;;;;;;;;;;;;;;;35.22;36.59;99533.38;5108630;28;880;-60
2021/07/13 06:24:38;;;;;;;;;;;;;;;35.48;36.55;99532.81;5108378;28;979;-61
2021/07/13 06:27:05;;;;;;;;;;;;;;;35.62;35.91;99533.31;5096631;28;975;-60
2021/07/13 06:29:32;;;;;;;;;;;;;;;35.86;35.72;99536.81;5094665;28;822;-60
2021/07/13 06:31:59;;;;;;;;;;;;;;;36.22;34.06;99533.44;5095131;28;837;-60
2021/07/13 06:34:26;;;;;;;;;;;;;;;36.46;34.89;99528.97;5094275;28;1905;-60
2021/07/13 06:36:53;;;;;;;;;;;;;;;36.71;33.89;99531.78;5094975;28;806;-61
2021/07/13 06:39:19;;;;;;;;;;;;;;;36.86;33.23;99538.72;5094416;28;805;-62
2021/07/13 06:41:46;;;;;;;;;;;;;;;36.42;33.03;99530.75;5094159;28;834;-61
2021/07/13 06:44:13;;;;;;;;;;;;;;;36.58;33.43;99521.34;5094427;28;814;-61
2021/07/13 06:46:39;;;;;;;;;;;;;;;36.53;33.46;99527.34;5094183;28;919;-61
2021/07/13 06:49:07;;;;;;;;;;;;;;;36.83;32.78;99534.13;5094146;28;863;-61
2021/07/13 06:51:33;;;;;;;;;;;;;;;37.27;32.32;99524.75;5094115;28;934;-61
2021/07/13 06:54:00;;;;;;;;;;;;;;;37.62;32.81;99525.41;5094016;28;1935;-61
2021/07/13 06:56:27;;;;;;;;;;;;;;;37.58;31.99;99522.22;5092717;28;917;-61
2021/07/13 06:58:53;;;;;;;;;;;;;;;37.75;31.90;99525.00;5093969;28;952;-61
2021/07/13 07:01:20;;;;;;;;;;;;;;;37.77;31.29;99528.06;5093881;28;929;-61
2021/07/13 07:03:45;;;;;;;;;;;;;;;37.62;31.67;99519.66;5093863;28;948;-61
2021/07/13 07:06:12;;;;;;;;;;;;;;;37.91;31.16;99516.09;5093882;28;813;-61
2021/07/13 07:08:39;;;;;;;;;;;;;;;37.93;31.04;99510.47;5093881;28;852;-61
2021/07/13 07:11:06;;;;;;;;;;;;;;;37.90;30.26;99515.34;5093592;28;912;-61
2021/07/13 07:13:33;;;;;;;;;;;;;;;38.09;30.10;99519.66;5093656;28;1011;-62
2021/07/13 07:16:00;;;;;;;;;;;;;;;38.46;30.25;99519.56;5073381;28;1977;-61
2021/07/13 07:18:27;;;;;;;;;;;;;;;38.52;29.81;99517.91;5073431;28;797;-61
2021/07/13 07:20:54;;;;;;;;;;;;;;;38.90;29.75;99510.59;5073353;28;868;-61
2021/07/13 07:23:20;;;;;;;;;;;;;;;39.44;29.70;99514.47;5073354;28;826;-61
2021/07/13 07:25:47;;;;;;;;;;;;;;;39.57;27.68;99511.06;5073248;28;876;-61
2021/07/13 07:28:14;;;;;;;;;;;;;;;39.45;28.62;99513.06;5073161;28;932;-61
2021/07/13 07:30:40;;;;;;;;;;;;;;;39.71;28.42;99503.38;5073198;28;853;-61
2021/07/13 07:33:06;;;;;;;;;;;;;;;39.99;27.46;99501.72;5073170;28;805;-61
2021/07/13 07:35:33;;;;;;;;;;;;;;;40.00;27.79;99496.69;5073127;28;1992;-61
2021/07/13 07:38:00;;;;;;;;;;;;;;;40.33;27.04;99504.69;5071976;28;817;-61
2021/07/13 07:40:27;;;;;;;;;;;;;;;40.73;25.51;99500.88;5073109;28;920;-61
2021/07/13 07:42:55;;;;;;;;;;;;;;;40.54;24.43;99498.13;5072826;28;920;-61
2021/07/13 07:45:22;;;;;;;;;;;;;;;40.85;24.57;99500.94;5072761;28;880;-61
2021/07/13 07:47:49;;;;;;;;;;;;;;;41.05;24.71;99504.38;5072865;28;798;-61
2021/07/13 07:50:17;;;;;;;;;;;;;;;40.64;24.40;99501.69;5072684;28;913;-61
2021/07/13 07:52:44;;;;;;;;;;;;;;;40.47;25.21;99502.00;5072594;28;937;-61
2021/07/13 07:55:11;;;;;;;;;;;;;;;40.00;23.91;99503.22;5072825;28;1879;-61
2021/07/13 07:57:38;;;;;;;;;;;;;;;40.25;25.60;99502.00;5072633;28;900;-61
2021/07/13 08:00:06;;;;;;;;;;;;;;;40.39;24.40;99500.09;5072492;28;841;-61
2021/07/13 08:02:33;;;;;;;;;;;;;;;40.03;24.93;99503.38;5072591;28;869;-61
2021/07/13 08:05:00;;;;;;;;;;;;;;;40.04;25.61;99502.75;5072671;28;846;-61
2021/07/13 08:07:27;;;;;;;;;;;;;;;40.61;25.52;99502.97;5072610;28;917;-61
2021/07/13 08:09:54;;;;;;;;;;;;;;;40.96;24.89;99511.03;5072269;28;810;-61
2021/07/13 08:12:20;;;;;;;;;;;;;;;40.57;24.42;99512.13;5072329;28;810;-61
2021/07/13 08:14:47;;;;;;;;;;;;;;;40.54;23.52;99504.69;5082029;28;1898;-62
2021/07/13 08:17:12;;;;;;;;;;;;;;;40.20;24.58;99506.75;5092627;28;822;-61
2021/07/13 08:19:39;;;;;;;;;;;;;;;39.56;24.98;99503.75;5092426;28;837;-61
2021/07/13 08:22:10;;;;;;;;;;;;;;;39.54;25.67;99497.81;5092650;28;853;-62
2021/07/13 08:24:37;;;;;;;;;;;;;;;39.65;25.36;99507.97;5092369;28;817;-61
2021/07/13 08:27:05;;;;;;;;;;;;;;;39.69;25.97;99505.34;5092269;28;857;-61
2021/07/13 08:29:32;;;;;;;;;;;;;;;39.89;25.49;99500.25;5092162;28;892;-61
2021/07/13 08:31:59;;;;;;;;;;;;;;;40.00;25.66;99506.13;5092181;28;842;-61
2021/07/13 08:34:30;;;;;;;;;;;;;;;40.17;24.22;99501.44;5092039;28;1963;-61
2021/07/13 08:36:57;;;;;;;;;;;;;;;40.12;24.23;99502.56;5092584;28;948;-61
2021/07/13 08:39:24;;;;;;;;;;;;;;;39.87;23.96;99500.88;5092322;28;905;-61
2021/07/13 08:41:51;;;;;;;;;;;;;;;39.85;24.57;99499.97;5092325;28;838;-62
2021/07/13 08:44:18;;;;;;;;;;;;;;;39.89;23.78;99506.81;5092676;28;826;-61
2021/07/13 08:46:45;;;;;;;;;;;;;;;40.42;24.29;99507.53;5092158;28;882;-61
2021/07/13 08:49:12;;;;;;;;;;;;;;;40.67;23.40;99505.47;5091980;28;894;-61
2021/07/13 08:51:40;;;;;;;;;;;;;;;40.35;23.17;99499.03;5092036;28;952;-61
2021/07/13 08:54:07;;;;;;;;;;;;;;;40.10;23.15;99508.97;5092046;28;1933;-61
2021/07/13 08:56:35;;;;;;;;;;;;;;;40.14;22.46;99503.44;5091999;28;897;-61
2021/07/13 08:59:02;;;;;;;;;;;;;;;40.37;23.13;99502.84;5091950;28;833;-61
2021/07/13 09:01:29;;;;;;;;;;;;;;;40.39;22.74;99505.09;5091833;28;794;-61
2021/07/13 09:04:04;;;;;;;;;;;;;;;40.51;22.74;99505.19;5091859;28;868;-61
2021/07/13 09:06:51;;;;;;;;;;;;;;;40.49;24.47;99507.94;5091780;28;893;-61
2021/07/13 09:09:31;;;;;;;;;;;;;;;40.52;22.93;99503.78;5091453;28;1705;-61
2021/07/13 09:12:08;;;;;;;;;;;;;;;40.00;23.13;99506.13;5091831;28;880;-61
2021/07/13 09:14:53;;;;;;;;;;;;;;;39.27;23.88;99509.63;5091338;28;1961;-61
2021/07/13 09:17:38;;;;;;;;;;;;;;;38.95;24.86;99509.53;5091604;28;904;-62
2021/07/13 09:20:12;;;;;;;;;;;;;;;39.14;25.63;99505.84;5091596;28;908;-61
2021/07/13 09:23:00;;;;;;;;;;;;;;;39.20;24.85;99503.41;5091574;28;892;-63
2021/07/13 09:25:34;;;;;;;;;;;;;;;38.72;26.38;99501.31;5091506;28;1796;-62
2021/07/13 09:28:10;;;;;;;;;;;;;;;38.38;24.91;99505.25;5091540;28;852;-61
2021/07/13 09:30:38;;;;;;;;;;;;;;;38.28;25.31;99508.16;5091445;28;841;-61
2021/07/13 09:33:15;;;;;;;;;;;;;;;38.59;25.57;99505.44;5091441;28;955;-61
2021/07/13 09:36:00;;;;;;;;;;;;;;;38.72;24.88;99498.44;5091407;28;1878;-61
2021/07/13 09:38:28;;;;;;;;;;;;;;;38.94;25.45;99499.34;5091493;28;861;-61
2021/07/13 09:41:23;;;;;;;;;;;;;;;38.68;25.28;99495.25;5091361;28;930;-62
2021/07/13 09:43:59;;;;;;;;;;;;;;;37.78;26.09;99500.72;5105365;28;1322;-62
2021/07/13 09:46:38;;;;;;;;;;;;;;;37.53;28.91;99503.78;5091321;28;909;-62
2021/07/13 09:49:13;;;;;;;;;;;;;;;37.63;28.63;99500.22;5091461;28;810;-61
2021/07/13 09:51:40;;;;;;;;;;;;;;;37.86;28.07;99500.59;5091293;28;845;-62
2021/07/13 09:54:25;;;;;;;;;;;;;;;37.40;27.67;99501.31;5091221;28;1949;-61
2021/07/13 09:56:52;;;;;;;;;;;;;;;36.90;27.81;99507.38;5091181;28;941;-62
2021/07/13 09:59:19;;;;;;;;;;;;;;;36.61;29.53;99495.63;5091462;28;885;-62
2021/07/13 10:01:46;;;;;;;;;;;;;;;36.21;29.25;99494.53;5093243;28;806;-63
2021/07/13 10:04:12;;;;;;;;;;;;;;;35.87;31.26;99498.06;5095019;28;858;-62
2021/07/13 10:06:39;;;;;;;;;;;;;;;35.56;31.32;99499.06;5094943;28;898;-61
2021/07/13 10:09:11;;;;;;;;;;;;;;;35.56;31.20;99496.19;5094792;28;861;-62
2021/07/13 10:11:41;;;;;;;;;;;;;;;35.26;31.12;99488.56;5094859;28;857;-61
2021/07/13 10:14:09;;;;;;;;;;;;;;;35.28;31.10;99490.84;5094605;28;1909;-62
2021/07/13 10:16:36;;;;;;;;;;;;;;;35.10;32.03;99487.88;5095118;28;864;-61
2021/07/13 10:19:06;;;;;;;;;;;;;;;34.75;31.34;99484.78;5095061;28;794;-62
2021/07/13 10:21:33;;;;;;;;;;;;;;;34.51;31.48;99485.41;5127464;27;829;-62
2021/07/13 10:24:01;;;;;;;;;;;;;;;34.49;32.73;99488.09;5094597;28;849;-61
2021/07/13 10:26:46;;;;;;;;;;;;;;;34.54;32.46;99487.88;5094641;28;838;-62
2021/07/13 10:29:31;;;;;;;;;;;;;;;34.54;32.11;99485.00;5094524;28;897;-62
2021/07/13 10:32:00;;;;;;;;;;;;;;;34.50;31.10;99481.00;5094805;28;814;-62
2021/07/13 10:34:45;;;;;;;;;;;;;;;34.40;32.04;99488.69;5093146;28;1894;-62
2021/07/13 10:37:30;;;;;;;;;;;;;;;34.44;31.11;99478.38;5094434;28;861;-62
2021/07/13 10:40:03;;;;;;;;;;;;;;;34.27;30.77;99487.59;5094413;28;821;-62
2021/07/13 10:42:41;;;;;;;;;;;;;;;34.41;30.80;99475.88;5094260;28;940;-62
2021/07/13 10:45:14;;;;;;;;;;;;;;;34.35;31.16;99485.47;5094390;28;798;-62
2021/07/13 10:48:00;;;;;;;;;;;;;;;34.32;30.60;99486.63;5094177;28;822;-63
2021/07/13 10:50:29;;;;;;;;;;;;;;;34.33;30.81;99468.06;5094099;28;912;-62
2021/07/13 10:53:00;;;;;;;;;;;;;;;34.30;30.16;99480.69;5094099;28;952;-63
2021/07/13 10:55:37;;;;;;;;;;;;;;;34.14;29.98;99473.47;5093991;28;1939;-63
2021/07/13 10:58:15;;;;;;;;;;;;;;;34.07;30.06;99474.22;5093974;28;881;-62
2021/07/13 11:00:53;;;;;;;;;;;;;;;34.25;29.59;99464.47;5093964;28;790;-62
2021/07/13 11:03:32;;;;;;;;;;;;;;;34.38;29.25;99468.44;5094022;28;809;-63
2021/07/13 11:06:11;;;;;;;;;;;;;;;34.34;29.60;99460.22;5093885;28;794;-64
2021/07/13 11:08:41;;;;;;;;;;;;;;;34.43;28.78;99461.72;5093762;28;818;-62
2021/07/13 11:11:08;;;;;;;;;;;;;;;34.71;29.21;99466.44;5093795;28;848;-62
2021/07/13 11:13:35;;;;;;;;;;;;;;;35.00;28.75;99461.13;5093462;28;1285;-62
2021/07/13 11:16:01;;;;;;;;;;;;;;;34.90;27.91;99463.09;5093545;28;1926;-62
2021/07/13 11:18:28;;;;;;;;;;;;;;;34.94;28.40;99457.72;5093651;28;857;-62
2021/07/13 11:20:55;;;;;;;;;;;;;;;35.17;28.50;99455.47;5093744;28;1036;-62
2021/07/13 11:23:28;;;;;;;;;;;;;;;35.26;28.13;99459.81;5126324;27;1013;-63
2021/07/13 11:26:05;;;;;;;;;;;;;;;35.10;28.05;99455.50;5093509;28;818;-62
2021/07/13 11:28:32;;;;;;;;;;;;;;;35.34;27.33;99448.28;5126388;27;798;-62
2021/07/13 11:30:59;;;;;;;;;;;;;;;35.76;28.84;99444.69;5093473;28;829;-64
2021/07/13 11:33:27;;;;;;;;;;;;;;;35.80;28.24;99447.91;5093325;28;838;-62
2021/07/13 11:35:55;;;;;;;;;;;;;;;35.60;26.92;99454.78;5093370;28;1905;-63
2021/07/13 11:38:28;;;;;;;;;;;;;;;35.44;27.54;99451.28;5093133;28;806;-63
2021/07/13 11:41:10;;;;;;;;;;;;;;;35.60;27.70;99443.31;5093169;28;861;-63
2021/07/13 11:43:37;;;;;;;;;;;;;;;35.69;27.19;99440.53;5093177;28;916;-63
2021/07/13 11:46:12;;;;;;;;;;;;;;;35.37;27.08;99455.72;5093097;28;866;-63
2021/07/13 11:48:40;;;;;;;;;;;;;;;35.22;27.55;99439.38;5092974;28;861;-63
2021/07/13 11:51:09;;;;;;;;;;;;;;;35.27;26.86;99449.09;5093059;28;877;-63
2021/07/13 11:53:36;;;;;;;;;;;;;;;35.34;27.09;99449.06;5092971;28;817;-63
2021/07/13 11:56:03;;;;;;;;;;;;;;;35.84;27.38;99442.53;5092818;28;1885;-62
2021/07/13 11:58:29;;;;;;;;;;;;;;;36.15;27.04;99436.50;5092887;28;915;-63
2021/07/13 12:01:15;;;;;;;;;;;;;;;36.38;27.32;99439.09;5092711;28;1050;-63
2021/07/13 12:03:42;;;;;;;;;;;;;;;36.91;26.49;99449.19;5092771;28;810;-63
2021/07/13 12:06:09;;;;;;;;;;;;;;;37.06;25.66;99439.56;5092611;28;881;-62
2021/07/13 12:08:36;;;;;;;;;;;;;;;37.37;25.19;99442.75;5092616;28;896;-60
2021/07/13 12:11:03;;;;;;;;;;;;;;;37.54;24.47;99436.16;5092595;28;782;-60
2021/07/13 12:13:29;;;;;;;;;;;;;;;37.96;25.35;99437.94;5092601;28;873;-60
2021/07/13 12:16:15;;;;;;;;;;;;;;;38.25;24.76;99430.69;5092355;28;1910;-60
2021/07/13 12:18:41;;;;;;;;;;;;;;;38.28;25.43;99430.25;5092427;28;916;-61
2021/07/13 12:21:08;;;;;;;;;;;;;;;38.40;25.14;99436.16;5092657;28;854;-61
2021/07/13 12:23:35;;;;;;;;;;;;;;;38.31;26.68;99437.66;5091791;28;854;-61
2021/07/13 12:26:20;;;;;;;;;;;;;;;38.30;26.37;99433.28;5125103;27;842;-60
2021/07/13 12:29:05;;;;;;;;;;;;;;;38.62;26.71;99439.94;5092284;28;857;-60
2021/07/13 12:31:32;;;;;;;;;;;;;;;38.94;26.14;99432.13;5092187;28;790;-60
2021/07/13 12:33:59;;;;;;;;;;;;;;;38.64;25.61;99424.91;5092133;28;1889;-60
2021/07/13 12:36:27;;;;;;;;;;;;;;;38.39;26.21;99428.88;5092127;28;885;-61
2021/07/13 12:38:54;;;;;;;;;;;;;;;37.94;25.33;99411.81;5092177;28;799;-61
2021/07/13 12:41:21;;;;;;;;;;;;;;;37.69;25.24;99420.75;5092131;28;861;-61
2021/07/13 12:43:48;;;;;;;;;;;;;;;37.72;25.16;99421.66;5092332;28;865;-61
2021/07/13 12:46:28;;;;;;;;;;;;;;;37.94;25.47;99417.59;5092031;28;825;-63
2021/07/13 12:48:57;;;;;;;;;;;;;;;38.07;25.22;99412.75;5091996;28;802;-61
2021/07/13 12:51:25;;;;;;;;;;;;;;;38.00;25.37;99418.06;5092222;28;1011;-61
2021/07/13 12:54:05;;;;;;;;;;;;;;;37.92;25.38;99417.44;5090690;28;1881;-61
2021/07/13 12:56:33;;;;;;;;;;;;;;;37.91;25.59;99407.25;5092070;28;865;-63
2021/07/13 12:59:06;;;;;;;;;;;;;;;37.82;25.61;99415.91;5091833;28;804;-61
2021/07/13 13:01:33;;;;;;;;;;;;;;;37.85;25.57;99412.56;5092080;28;933;-62
2021/07/13 13:04:11;;;;;;;;;;;;;;;37.92;26.00;99411.66;5092014;28;884;-62
2021/07/13 13:06:38;;;;;;;;;;;;;;;38.09;25.89;99404.25;5091599;28;928;-61
2021/07/13 13:09:13;;;;;;;;;;;;;;;38.18;25.86;99409.28;5091674;28;1028;-61
2021/07/13 13:11:40;;;;;;;;;;;;;;;38.05;26.02;99410.50;5091574;28;958;-61
2021/07/13 13:14:09;;;;;;;;;;;;;;;38.18;26.43;99412.91;5091214;28;1894;-61
2021/07/13 13:16:38;;;;;;;;;;;;;;;38.70;26.33;99408.03;5091998;28;1125;-61
2021/07/13 13:19:05;;;;;;;;;;;;;;;38.82;25.94;99405.28;5091555;28;892;-60
2021/07/13 13:21:33;;;;;;;;;;;;;;;38.99;25.83;99405.84;5091787;28;810;-60
2021/07/13 13:24:01;;;;;;;;;;;;;;;38.83;25.93;99407.53;5091608;28;830;-61